sensor_id;sensor_type;location;lat;lon;timestamp;pressure;altitude;pressure_sealevel;temperature;humidity
84271;BME280;74614;50.032;19.566;2024-01-27T00:00:23;98910.92;;;3.72;77.71
84271;BME280;74614;50.032;19.566;2024-01-27T00:02:23;98918.95;;;3.64;77.64
84271;BME280;74614;50.032;19.566;2024-01-27T00:04:23;98930.08;;;3.60;77.88
84271;BME280;74614;50.032;19.566;2024-01-27T00:06:24;98942.05;;;3.55;77.29
84271;BME280;74614;50.032;19.566;2024-01-27T00:08:26;98953.17;;;3.62;77.54
84271;BME280;74614;50.032;19.566;2024-01-27T00:10:25;98961.12;;;3.63;77.76
84271;BME280;74614;50.032;19.566;2024-01-27T00:12:25;98980.22;;;3.51;78.28
84271;BME280;74614;50.032;19.566;2024-01-27T00:14:24;98982.56;;;3.43;77.79
84271;BME280;74614;50.032;19.566;2024-01-27T00:16:22;98996.92;;;3.18;77.87
84271;BME280;74614;50.032;19.566;2024-01-27T00:18:23;98994.00;;;3.14;78.04
84271;BME280;74614;50.032;19.566;2024-01-27T00:20:23;99010.00;;;3.07;78.05
84271;BME280;74614;50.032;19.566;2024-01-27T00:22:26;99015.45;;;3.07;77.87
84271;BME280;74614;50.032;19.566;2024-01-27T00:24:23;99031.58;;;3.09;78.38
84271;BME280;74614;50.032;19.566;2024-01-27T00:26:22;99037.94;;;3.08;78.49
84271;BME280;74614;50.032;19.566;2024-01-27T00:28:22;99037.85;;;3.08;78.40
84271;BME280;74614;50.032;19.566;2024-01-27T00:30:30;99048.52;;;3.14;78.34
84271;BME280;74614;50.032;19.566;2024-01-27T00:32:24;99054.26;;;3.19;78.20
84271;BME280;74614;50.032;19.566;2024-01-27T00:34:23;99053.05;;;3.21;78.28
84271;BME280;74614;50.032;19.566;2024-01-27T00:36:24;99056.52;;;3.11;77.85
84271;BME280;74614;50.032;19.566;2024-01-27T00:38:22;99063.15;;;3.19;77.57
84271;BME280;74614;50.032;19.566;2024-01-27T00:40:24;99049.71;;;3.05;77.59
84271;BME280;74614;50.032;19.566;2024-01-27T00:42:29;99066.43;;;3.06;78.14
84271;BME280;74614;50.032;19.566;2024-01-27T00:44:25;99072.89;;;3.04;77.59
84271;BME280;74614;50.032;19.566;2024-01-27T00:46:24;99073.45;;;2.98;77.09
84271;BME280;74614;50.032;19.566;2024-01-27T00:48:25;99083.76;;;2.92;77.20
84271;BME280;74614;50.032;19.566;2024-01-27T00:50:23;99070.98;;;2.75;76.52
84271;BME280;74614;50.032;19.566;2024-01-27T00:52:24;99080.99;;;2.95;76.82
84271;BME280;74614;50.032;19.566;2024-01-27T00:54:24;99072.59;;;2.96;76.47
84271;BME280;74614;50.032;19.566;2024-01-27T00:56:26;99085.70;;;2.97;76.63
84271;BME280;74614;50.032;19.566;2024-01-27T00:58:24;99100.35;;;2.92;76.09
84271;BME280;74614;50.032;19.566;2024-01-27T01:00:23;99098.57;;;2.96;76.64
84271;BME280;74614;50.032;19.566;2024-01-27T01:02:26;99092.31;;;2.85;75.35
84271;BME280;74614;50.032;19.566;2024-01-27T01:04:22;99090.75;;;2.87;75.08
84271;BME280;74614;50.032;19.566;2024-01-27T01:06:23;99091.98;;;2.87;75.12
84271;BME280;74614;50.032;19.566;2024-01-27T01:08:23;99093.22;;;2.80;74.83
84271;BME280;74614;50.032;19.566;2024-01-27T01:10:24;99098.96;;;2.83;74.57
84271;BME280;74614;50.032;19.566;2024-01-27T01:12:26;99101.10;;;2.87;74.51
84271;BME280;74614;50.032;19.566;2024-01-27T01:14:22;99101.13;;;2.87;73.74
84271;BME280;74614;50.032;19.566;2024-01-27T01:16:30;99103.35;;;2.87;73.59
84271;BME280;74614;50.032;19.566;2024-01-27T01:18:24;99113.57;;;2.96;74.33
84271;BME280;74614;50.032;19.566;2024-01-27T01:20:22;99110.86;;;2.96;74.51
84271;BME280;74614;50.032;19.566;2024-01-27T01:22:23;99112.33;;;2.93;73.02
84271;BME280;74614;50.032;19.566;2024-01-27T01:24:22;99113.79;;;2.97;73.57
84271;BME280;74614;50.032;19.566;2024-01-27T01:26:24;99113.50;;;2.96;73.92
84271;BME280;74614;50.032;19.566;2024-01-27T01:28:22;99127.22;;;2.95;74.06
84271;BME280;74614;50.032;19.566;2024-01-27T01:30:22;99116.49;;;2.87;72.84
84271;BME280;74614;50.032;19.566;2024-01-27T01:32:22;99121.32;;;2.86;72.83
84271;BME280;74614;50.032;19.566;2024-01-27T01:34:23;99121.03;;;2.89;72.85
84271;BME280;74614;50.032;19.566;2024-01-27T01:36:23;99127.80;;;2.90;73.54
84271;BME280;74614;50.032;19.566;2024-01-27T01:38:27;99126.87;;;2.94;73.75
84271;BME280;74614;50.032;19.566;2024-01-27T01:40:22;99122.00;;;2.86;73.71
84271;BME280;74614;50.032;19.566;2024-01-27T01:42:28;99115.86;;;2.83;73.30
84271;BME280;74614;50.032;19.566;2024-01-27T01:44:24;99124.90;;;2.86;73.19
84271;BME280;74614;50.032;19.566;2024-01-27T01:46:23;99126.49;;;2.85;73.20
84271;BME280;74614;50.032;19.566;2024-01-27T01:48:24;99126.71;;;2.90;73.46
84271;BME280;74614;50.032;19.566;2024-01-27T01:50:23;99122.73;;;2.88;73.55
84271;BME280;74614;50.032;19.566;2024-01-27T01:52:25;99128.35;;;2.85;72.75
84271;BME280;74614;50.032;19.566;2024-01-27T01:54:23;99133.88;;;2.90;73.21
84271;BME280;74614;50.032;19.566;2024-01-27T01:56:23;99137.05;;;2.89;72.82
84271;BME280;74614;50.032;19.566;2024-01-27T01:58:23;99142.00;;;2.87;73.37
84271;BME280;74614;50.032;19.566;2024-01-27T02:00:23;99131.18;;;2.85;73.35
84271;BME280;74614;50.032;19.566;2024-01-27T02:02:22;99135.16;;;2.80;73.38
84271;BME280;74614;50.032;19.566;2024-01-27T02:04:24;99141.75;;;2.87;74.05
84271;BME280;74614;50.032;19.566;2024-01-27T02:06:23;99144.49;;;2.77;74.10
84271;BME280;74614;50.032;19.566;2024-01-27T02:08:23;99138.73;;;2.82;74.11
84271;BME280;74614;50.032;19.566;2024-01-27T02:10:25;99148.22;;;2.81;74.05
84271;BME280;74614;50.032;19.566;2024-01-27T02:12:28;99148.02;;;2.71;74.12
84271;BME280;74614;50.032;19.566;2024-01-27T02:14:24;99140.80;;;2.70;74.63
84271;BME280;74614;50.032;19.566;2024-01-27T02:16:25;99149.35;;;2.75;74.35
84271;BME280;74614;50.032;19.566;2024-01-27T02:18:25;99146.25;;;2.73;74.27
84271;BME280;74614;50.032;19.566;2024-01-27T02:20:22;99140.39;;;2.72;74.02
84271;BME280;74614;50.032;19.566;2024-01-27T02:22:30;99141.41;;;2.70;74.22
84271;BME280;74614;50.032;19.566;2024-01-27T02:24:23;99137.06;;;2.68;74.23
84271;BME280;74614;50.032;19.566;2024-01-27T02:26:24;99146.97;;;2.66;74.43
84271;BME280;74614;50.032;19.566;2024-01-27T02:28:24;99142.21;;;2.58;73.06
84271;BME280;74614;50.032;19.566;2024-01-27T02:30:23;99147.53;;;2.67;71.97
84271;BME280;74614;50.032;19.566;2024-01-27T02:32:27;99147.30;;;2.60;69.14
84271;BME280;74614;50.032;19.566;2024-01-27T02:34:23;99147.36;;;2.71;69.50
84271;BME280;74614;50.032;19.566;2024-01-27T02:36:22;99149.10;;;2.76;69.78
84271;BME280;74614;50.032;19.566;2024-01-27T02:38:22;99148.81;;;2.73;69.33
84271;BME280;74614;50.032;19.566;2024-01-27T02:40:23;99148.31;;;2.72;69.46
84271;BME280;74614;50.032;19.566;2024-01-27T02:42:23;99148.35;;;2.75;69.27
84271;BME280;74614;50.032;19.566;2024-01-27T02:44:22;99141.80;;;2.82;70.05
84271;BME280;74614;50.032;19.566;2024-01-27T02:46:22;99147.48;;;2.83;70.41
84271;BME280;74614;50.032;19.566;2024-01-27T02:48:24;99155.57;;;2.78;68.61
84271;BME280;74614;50.032;19.566;2024-01-27T02:50:23;99162.73;;;2.86;69.95
84271;BME280;74614;50.032;19.566;2024-01-27T02:52:29;99159.64;;;2.82;68.21
84271;BME280;74614;50.032;19.566;2024-01-27T02:54:23;99158.15;;;2.77;66.82
84271;BME280;74614;50.032;19.566;2024-01-27T02:56:22;99156.10;;;2.83;67.49
84271;BME280;74614;50.032;19.566;2024-01-27T02:58:23;99166.86;;;2.89;68.48
84271;BME280;74614;50.032;19.566;2024-01-27T03:00:24;99170.81;;;2.90;69.02
84271;BME280;74614;50.032;19.566;2024-01-27T03:02:22;99175.83;;;2.94;69.58
84271;BME280;74614;50.032;19.566;2024-01-27T03:04:26;99171.18;;;2.97;69.64
84271;BME280;74614;50.032;19.566;2024-01-27T03:06:23;99177.53;;;2.94;67.48
84271;BME280;74614;50.032;19.566;2024-01-27T03:08:23;99179.28;;;3.01;67.78
84271;BME280;74614;50.032;19.566;2024-01-27T03:10:22;99179.33;;;2.96;67.19
84271;BME280;74614;50.032;19.566;2024-01-27T03:12:28;99178.00;;;2.95;67.47
84271;BME280;74614;50.032;19.566;2024-01-27T03:14:22;99181.79;;;2.89;66.87
84271;BME280;74614;50.032;19.566;2024-01-27T03:17:29;99184.98;;;2.90;67.68
84271;BME280;74614;50.032;19.566;2024-01-27T03:19:22;99206.50;;;2.94;67.84
84271;BME280;74614;50.032;19.566;2024-01-27T03:21:24;99190.11;;;2.77;65.84
84271;BME280;74614;50.032;19.566;2024-01-27T03:23:22;99187.17;;;2.87;66.76
84271;BME280;74614;50.032;19.566;2024-01-27T03:25:29;99190.42;;;2.91;68.14
84271;BME280;74614;50.032;19.566;2024-01-27T03:27:22;99194.07;;;2.93;67.86
84271;BME280;74614;50.032;19.566;2024-01-27T03:29:25;99194.60;;;2.93;68.57
84271;BME280;74614;50.032;19.566;2024-01-27T03:31:35;99206.30;;;2.92;68.08
84271;BME280;74614;50.032;19.566;2024-01-27T03:33:26;99204.12;;;2.88;69.11
84271;BME280;74614;50.032;19.566;2024-01-27T03:35:27;99196.51;;;2.86;69.77
84271;BME280;74614;50.032;19.566;2024-01-27T03:37:24;99201.32;;;2.81;68.79
84271;BME280;74614;50.032;19.566;2024-01-27T03:39:23;99208.04;;;2.82;68.89
84271;BME280;74614;50.032;19.566;2024-01-27T03:41:28;99203.94;;;2.82;68.51
84271;BME280;74614;50.032;19.566;2024-01-27T03:43:24;99219.35;;;2.79;69.26
84271;BME280;74614;50.032;19.566;2024-01-27T03:45:26;99208.32;;;2.48;71.60
84271;BME280;74614;50.032;19.566;2024-01-27T03:47:22;99207.04;;;2.26;72.30
84271;BME280;74614;50.032;19.566;2024-01-27T03:49:26;99212.66;;;2.22;72.92
84271;BME280;74614;50.032;19.566;2024-01-27T03:51:23;99222.06;;;2.26;72.64
84271;BME280;74614;50.032;19.566;2024-01-27T03:53:26;99216.73;;;2.29;72.93
84271;BME280;74614;50.032;19.566;2024-01-27T03:55:26;99214.80;;;2.30;72.78
84271;BME280;74614;50.032;19.566;2024-01-27T03:57:26;99217.85;;;2.31;72.68
84271;BME280;74614;50.032;19.566;2024-01-27T03:59:25;99222.19;;;2.35;72.85
84271;BME280;74614;50.032;19.566;2024-01-27T04:01:25;99230.97;;;2.37;72.95
84271;BME280;74614;50.032;19.566;2024-01-27T04:03:23;99229.75;;;2.09;73.16
84271;BME280;74614;50.032;19.566;2024-01-27T04:05:26;99231.12;;;2.20;73.06
84271;BME280;74614;50.032;19.566;2024-01-27T04:07:22;99242.52;;;2.16;73.63
84271;BME280;74614;50.032;19.566;2024-01-27T04:09:27;99249.66;;;2.18;73.82
84271;BME280;74614;50.032;19.566;2024-01-27T04:11:23;99256.54;;;2.12;74.69
84271;BME280;74614;50.032;19.566;2024-01-27T04:13:28;99240.35;;;2.04;74.25
84271;BME280;74614;50.032;19.566;2024-01-27T04:15:23;99253.97;;;2.05;74.18
84271;BME280;74614;50.032;19.566;2024-01-27T04:17:28;99256.36;;;2.05;74.40
84271;BME280;74614;50.032;19.566;2024-01-27T04:19:35;99254.52;;;2.00;75.36
84271;BME280;74614;50.032;19.566;2024-01-27T04:21:30;99261.04;;;2.01;75.22
84271;BME280;74614;50.032;19.566;2024-01-27T04:23:28;99253.12;;;2.05;75.03
84271;BME280;74614;50.032;19.566;2024-01-27T04:25:24;99248.91;;;2.01;75.13
84271;BME280;74614;50.032;19.566;2024-01-27T04:27:36;99249.19;;;2.03;75.63
84271;BME280;74614;50.032;19.566;2024-01-27T04:29:28;99248.38;;;1.97;75.27
84271;BME280;74614;50.032;19.566;2024-01-27T04:31:27;99240.20;;;1.91;75.30
84271;BME280;74614;50.032;19.566;2024-01-27T04:33:28;99253.09;;;1.89;75.29
84271;BME280;74614;50.032;19.566;2024-01-27T04:35:22;99252.85;;;1.84;74.72
84271;BME280;74614;50.032;19.566;2024-01-27T04:37:26;99257.26;;;1.87;75.11
84271;BME280;74614;50.032;19.566;2024-01-27T04:39:23;99248.55;;;1.79;73.93
84271;BME280;74614;50.032;19.566;2024-01-27T04:41:25;99261.74;;;1.87;74.38
84271;BME280;74614;50.032;19.566;2024-01-27T04:43:23;99255.10;;;1.87;74.14
84271;BME280;74614;50.032;19.566;2024-01-27T04:45:24;99262.03;;;1.87;73.69
84271;BME280;74614;50.032;19.566;2024-01-27T04:47:22;99268.02;;;1.93;73.82
84271;BME280;74614;50.032;19.566;2024-01-27T04:49:26;99264.18;;;1.89;73.41
84271;BME280;74614;50.032;19.566;2024-01-27T04:51:23;99270.62;;;1.97;72.62
84271;BME280;74614;50.032;19.566;2024-01-27T04:53:25;99270.54;;;2.02;72.99
84271;BME280;74614;50.032;19.566;2024-01-27T04:55:24;99278.08;;;1.99;72.21
84271;BME280;74614;50.032;19.566;2024-01-27T04:57:25;99273.78;;;2.00;72.47
84271;BME280;74614;50.032;19.566;2024-01-27T04:59:23;99272.21;;;2.01;71.56
84271;BME280;74614;50.032;19.566;2024-01-27T05:01:32;99279.46;;;2.05;72.28
84271;BME280;74614;50.032;19.566;2024-01-27T05:03:25;99291.72;;;1.94;72.61
84271;BME280;74614;50.032;19.566;2024-01-27T05:05:27;99295.61;;;1.84;73.05
84271;BME280;74614;50.032;19.566;2024-01-27T05:07:24;99292.64;;;1.88;73.88
84271;BME280;74614;50.032;19.566;2024-01-27T05:09:28;99288.19;;;1.80;74.78
84271;BME280;74614;50.032;19.566;2024-01-27T05:11:30;99300.59;;;1.77;75.01
84271;BME280;74614;50.032;19.566;2024-01-27T05:13:33;99299.13;;;1.77;75.12
84271;BME280;74614;50.032;19.566;2024-01-27T05:15:22;99299.68;;;1.65;74.80
84271;BME280;74614;50.032;19.566;2024-01-27T05:17:25;99308.73;;;1.62;75.12
84271;BME280;74614;50.032;19.566;2024-01-27T05:19:24;99299.87;;;1.60;74.90
84271;BME280;74614;50.032;19.566;2024-01-27T05:21:27;99301.05;;;1.58;75.20
84271;BME280;74614;50.032;19.566;2024-01-27T05:23:27;99295.55;;;1.52;74.22
84271;BME280;74614;50.032;19.566;2024-01-27T05:25:24;99308.27;;;1.68;74.45
84271;BME280;74614;50.032;19.566;2024-01-27T05:27:23;99309.42;;;1.59;74.65
84271;BME280;74614;50.032;19.566;2024-01-27T05:29:28;99309.54;;;1.70;74.21
84271;BME280;74614;50.032;19.566;2024-01-27T05:31:27;99309.64;;;1.70;73.81
84271;BME280;74614;50.032;19.566;2024-01-27T05:33:24;99308.55;;;1.72;73.99
84271;BME280;74614;50.032;19.566;2024-01-27T05:35:25;99304.16;;;1.73;73.53
84271;BME280;74614;50.032;19.566;2024-01-27T05:37:25;99302.39;;;1.73;73.36
84271;BME280;74614;50.032;19.566;2024-01-27T05:39:24;99309.17;;;1.73;73.66
84271;BME280;74614;50.032;19.566;2024-01-27T05:41:27;99297.81;;;1.69;73.24
84271;BME280;74614;50.032;19.566;2024-01-27T05:43:22;99300.16;;;1.78;73.02
84271;BME280;74614;50.032;19.566;2024-01-27T05:45:26;99303.37;;;1.69;72.55
84271;BME280;74614;50.032;19.566;2024-01-27T05:47:23;99301.53;;;1.81;72.26
84271;BME280;74614;50.032;19.566;2024-01-27T05:49:24;99304.19;;;1.85;72.44
84271;BME280;74614;50.032;19.566;2024-01-27T05:51:25;99302.10;;;1.82;72.27
84271;BME280;74614;50.032;19.566;2024-01-27T05:53:26;99306.51;;;1.89;71.56
84271;BME280;74614;50.032;19.566;2024-01-27T05:55:25;99306.87;;;1.84;70.31
84271;BME280;74614;50.032;19.566;2024-01-27T05:57:27;99295.92;;;1.88;70.40
84271;BME280;74614;50.032;19.566;2024-01-27T05:59:22;99303.57;;;1.89;69.87
84271;BME280;74614;50.032;19.566;2024-01-27T06:01:25;99303.73;;;1.97;69.23
84271;BME280;74614;50.032;19.566;2024-01-27T06:03:22;99306.29;;;1.86;68.09
84271;BME280;74614;50.032;19.566;2024-01-27T06:05:27;99306.40;;;2.03;68.56
84271;BME280;74614;50.032;19.566;2024-01-27T06:07:24;99303.00;;;2.00;69.02
84271;BME280;74614;50.032;19.566;2024-01-27T06:09:25;99309.28;;;2.01;67.41
84271;BME280;74614;50.032;19.566;2024-01-27T06:11:24;99310.61;;;2.12;68.86
84271;BME280;74614;50.032;19.566;2024-01-27T06:13:24;99313.21;;;2.08;68.23
84271;BME280;74614;50.032;19.566;2024-01-27T06:15:23;99324.98;;;2.13;67.18
84271;BME280;74614;50.032;19.566;2024-01-27T06:17:27;99315.45;;;2.05;65.71
84271;BME280;74614;50.032;19.566;2024-01-27T06:19:22;99321.82;;;2.14;66.46
84271;BME280;74614;50.032;19.566;2024-01-27T06:21:30;99314.96;;;2.05;66.02
84271;BME280;74614;50.032;19.566;2024-01-27T06:23:23;99316.17;;;2.19;65.71
84271;BME280;74614;50.032;19.566;2024-01-27T06:25:25;99317.53;;;2.17;65.89
84271;BME280;74614;50.032;19.566;2024-01-27T06:27:23;99327.54;;;2.21;65.48
84271;BME280;74614;50.032;19.566;2024-01-27T06:29:28;99325.09;;;2.15;65.62
84271;BME280;74614;50.032;19.566;2024-01-27T06:31:22;99323.47;;;2.25;66.16
84271;BME280;74614;50.032;19.566;2024-01-27T06:33:27;99328.28;;;2.26;65.61
84271;BME280;74614;50.032;19.566;2024-01-27T06:35:23;99324.97;;;2.29;66.30
84271;BME280;74614;50.032;19.566;2024-01-27T06:37:25;99339.24;;;2.20;64.98
84271;BME280;74614;50.032;19.566;2024-01-27T06:39:26;99337.47;;;2.20;65.88
84271;BME280;74614;50.032;19.566;2024-01-27T06:41:25;99344.15;;;2.24;66.30
84271;BME280;74614;50.032;19.566;2024-01-27T06:43:23;99345.73;;;2.23;65.52
84271;BME280;74614;50.032;19.566;2024-01-27T06:45:24;99348.94;;;2.14;64.77
84271;BME280;74614;50.032;19.566;2024-01-27T06:47:24;99352.67;;;2.19;65.49
84271;BME280;74614;50.032;19.566;2024-01-27T06:49:26;99354.62;;;2.13;64.89
84271;BME280;74614;50.032;19.566;2024-01-27T06:51:22;99350.13;;;2.23;65.31
84271;BME280;74614;50.032;19.566;2024-01-27T06:53:25;99356.69;;;2.16;64.72
84271;BME280;74614;50.032;19.566;2024-01-27T06:55:23;99359.60;;;2.24;65.04
84271;BME280;74614;50.032;19.566;2024-01-27T06:57:25;99360.04;;;2.19;64.69
84271;BME280;74614;50.032;19.566;2024-01-27T06:59:27;99360.28;;;2.24;65.14
84271;BME280;74614;50.032;19.566;2024-01-27T07:01:25;99366.01;;;2.19;64.86
84271;BME280;74614;50.032;19.566;2024-01-27T07:03:24;99368.05;;;2.21;64.46
84271;BME280;74614;50.032;19.566;2024-01-27T07:05:27;99369.66;;;2.24;64.76
84271;BME280;74614;50.032;19.566;2024-01-27T07:07:27;99368.22;;;2.21;64.37
84271;BME280;74614;50.032;19.566;2024-01-27T07:09:25;99367.86;;;2.27;64.13
84271;BME280;74614;50.032;19.566;2024-01-27T07:11:23;99368.62;;;2.30;64.61
84271;BME280;74614;50.032;19.566;2024-01-27T07:13:25;99359.14;;;2.22;63.63
84271;BME280;74614;50.032;19.566;2024-01-27T07:15:26;99373.43;;;2.27;63.58
84271;BME280;74614;50.032;19.566;2024-01-27T07:17:26;99365.87;;;2.26;63.09
84271;BME280;74614;50.032;19.566;2024-01-27T07:19:24;99363.40;;;2.28;63.38
84271;BME280;74614;50.032;19.566;2024-01-27T07:21:24;99375.16;;;2.33;63.93
84271;BME280;74614;50.032;19.566;2024-01-27T07:23:25;99367.91;;;2.18;63.06
84271;BME280;74614;50.032;19.566;2024-01-27T07:25:26;99377.63;;;2.36;64.38
84271;BME280;74614;50.032;19.566;2024-01-27T07:27:22;99374.48;;;2.22;62.30
84271;BME280;74614;50.032;19.566;2024-01-27T07:29:26;99385.64;;;2.35;63.36
84271;BME280;74614;50.032;19.566;2024-01-27T07:31:23;99392.73;;;2.35;63.04
84271;BME280;74614;50.032;19.566;2024-01-27T07:33:25;99391.97;;;2.37;62.80
84271;BME280;74614;50.032;19.566;2024-01-27T07:35:22;99385.87;;;2.35;62.32
84271;BME280;74614;50.032;19.566;2024-01-27T07:37:25;99401.54;;;2.22;61.67
84271;BME280;74614;50.032;19.566;2024-01-27T07:39:26;99394.55;;;2.32;62.15
84271;BME280;74614;50.032;19.566;2024-01-27T07:41:27;99392.69;;;2.32;61.87
84271;BME280;74614;50.032;19.566;2024-01-27T07:43:25;99395.02;;;2.36;62.04
84271;BME280;74614;50.032;19.566;2024-01-27T07:45:24;99388.86;;;2.32;62.17
84271;BME280;74614;50.032;19.566;2024-01-27T07:47:25;99398.22;;;2.37;61.97
84271;BME280;74614;50.032;19.566;2024-01-27T07:49:25;99381.67;;;2.30;62.00
84271;BME280;74614;50.032;19.566;2024-01-27T07:51:28;99394.51;;;2.31;62.42
84271;BME280;74614;50.032;19.566;2024-01-27T07:53:27;99385.88;;;2.36;62.20
84271;BME280;74614;50.032;19.566;2024-01-27T07:55:24;99397.54;;;2.37;62.51
84271;BME280;74614;50.032;19.566;2024-01-27T07:57:28;99388.87;;;2.31;63.47
84271;BME280;74614;50.032;19.566;2024-01-27T07:59:22;99387.71;;;2.35;62.83
84271;BME280;74614;50.032;19.566;2024-01-27T08:01:25;99390.78;;;2.30;62.52
84271;BME280;74614;50.032;19.566;2024-01-27T08:03:21;99389.47;;;2.34;62.49
84271;BME280;74614;50.032;19.566;2024-01-27T08:05:24;99395.68;;;2.38;62.72
84271;BME280;74614;50.032;19.566;2024-01-27T08:07:22;99397.42;;;2.35;62.39
84271;BME280;74614;50.032;19.566;2024-01-27T08:09:28;99399.38;;;2.40;63.16
84271;BME280;74614;50.032;19.566;2024-01-27T08:11:28;99397.34;;;2.37;62.02
84271;BME280;74614;50.032;19.566;2024-01-27T08:13:25;99403.87;;;2.32;62.08
84271;BME280;74614;50.032;19.566;2024-01-27T08:15:22;99405.27;;;2.36;62.06
84271;BME280;74614;50.032;19.566;2024-01-27T08:17:30;99411.02;;;2.47;62.57
84271;BME280;74614;50.032;19.566;2024-01-27T08:19:24;99407.46;;;2.41;61.55
84271;BME280;74614;50.032;19.566;2024-01-27T08:21:30;99405.96;;;2.44;62.16
84271;BME280;74614;50.032;19.566;2024-01-27T08:23:22;99390.80;;;2.37;61.65
84271;BME280;74614;50.032;19.566;2024-01-27T08:25:28;99405.19;;;2.31;61.23
84271;BME280;74614;50.032;19.566;2024-01-27T08:27:23;99399.04;;;2.30;61.33
84271;BME280;74614;50.032;19.566;2024-01-27T08:29:25;99414.10;;;2.36;61.57
84271;BME280;74614;50.032;19.566;2024-01-27T08:31:30;99399.53;;;2.33;61.11
84271;BME280;74614;50.032;19.566;2024-01-27T08:33:25;99406.22;;;2.42;61.55
84271;BME280;74614;50.032;19.566;2024-01-27T08:35:24;99405.96;;;2.43;62.37
84271;BME280;74614;50.032;19.566;2024-01-27T08:37:26;99409.95;;;2.38;61.84
84271;BME280;74614;50.032;19.566;2024-01-27T08:39:29;99402.87;;;2.36;61.23
84271;BME280;74614;50.032;19.566;2024-01-27T08:41:25;99404.41;;;2.33;61.11
84271;BME280;74614;50.032;19.566;2024-01-27T08:43:23;99407.63;;;2.39;61.50
84271;BME280;74614;50.032;19.566;2024-01-27T08:45:26;99409.00;;;2.29;61.28
84271;BME280;74614;50.032;19.566;2024-01-27T08:47:25;99402.23;;;2.30;61.93
84271;BME280;74614;50.032;19.566;2024-01-27T08:49:25;99394.71;;;2.30;61.17
84271;BME280;74614;50.032;19.566;2024-01-27T08:51:22;99396.59;;;2.35;61.93
84271;BME280;74614;50.032;19.566;2024-01-27T08:53:30;99406.71;;;2.23;61.58
84271;BME280;74614;50.032;19.566;2024-01-27T08:55:29;99398.03;;;2.33;61.36
84271;BME280;74614;50.032;19.566;2024-01-27T08:57:24;99395.83;;;2.22;61.49
84271;BME280;74614;50.032;19.566;2024-01-27T08:59:22;99400.36;;;2.27;61.69
84271;BME280;74614;50.032;19.566;2024-01-27T09:01:25;99397.17;;;2.33;61.62
84271;BME280;74614;50.032;19.566;2024-01-27T09:03:24;99399.75;;;2.30;61.36
84271;BME280;74614;50.032;19.566;2024-01-27T09:05:25;99399.55;;;2.42;61.87
84271;BME280;74614;50.032;19.566;2024-01-27T09:07:23;99409.73;;;2.42;61.49
84271;BME280;74614;50.032;19.566;2024-01-27T09:09:26;99402.80;;;2.42;61.89
84271;BME280;74614;50.032;19.566;2024-01-27T09:11:27;99406.95;;;2.36;61.83
84271;BME280;74614;50.032;19.566;2024-01-27T09:13:24;99419.06;;;2.44;63.13
84271;BME280;74614;50.032;19.566;2024-01-27T09:15:25;99425.99;;;2.30;63.07
84271;BME280;74614;50.032;19.566;2024-01-27T09:17:26;99414.86;;;1.94;65.14
84271;BME280;74614;50.032;19.566;2024-01-27T09:19:25;99431.91;;;2.00;66.98
84271;BME280;74614;50.032;19.566;2024-01-27T09:21:35;99429.94;;;1.96;67.16
84271;BME280;74614;50.032;19.566;2024-01-27T09:24:27;99435.54;;;1.67;68.82
84271;BME280;74614;50.032;19.566;2024-01-27T09:26:22;99443.69;;;1.56;69.47
84271;BME280;74614;50.032;19.566;2024-01-27T09:28:22;99455.42;;;1.65;70.00
84271;BME280;74614;50.032;19.566;2024-01-27T09:30:24;99449.13;;;1.56;70.31
84271;BME280;74614;50.032;19.566;2024-01-27T09:32:23;99438.97;;;1.55;70.83
84271;BME280;74614;50.032;19.566;2024-01-27T09:34:22;99441.35;;;1.54;71.21
84271;BME280;74614;50.032;19.566;2024-01-27T09:36:25;99443.35;;;1.47;71.57
84271;BME280;74614;50.032;19.566;2024-01-27T09:38:23;99443.91;;;1.44;72.25
84271;BME280;74614;50.032;19.566;2024-01-27T09:40:25;99440.32;;;1.40;72.12
84271;BME280;74614;50.032;19.566;2024-01-27T09:42:22;99429.35;;;1.32;72.46
84271;BME280;74614;50.032;19.566;2024-01-27T09:44:24;99442.28;;;1.49;71.78
84271;BME280;74614;50.032;19.566;2024-01-27T09:46:24;99442.56;;;1.26;73.24
84271;BME280;74614;50.032;19.566;2024-01-27T09:48:23;99446.97;;;1.22;74.31
84271;BME280;74614;50.032;19.566;2024-01-27T09:50:22;99436.15;;;1.19;74.86
84271;BME280;74614;50.032;19.566;2024-01-27T09:52:23;99440.17;;;1.27;75.18
84271;BME280;74614;50.032;19.566;2024-01-27T09:54:23;99440.73;;;1.13;74.96
84271;BME280;74614;50.032;19.566;2024-01-27T09:56:25;99438.43;;;1.00;75.64
84271;BME280;74614;50.032;19.566;2024-01-27T09:58:24;99447.42;;;1.14;75.58
84271;BME280;74614;50.032;19.566;2024-01-27T10:00:25;99449.44;;;0.98;76.11
84271;BME280;74614;50.032;19.566;2024-01-27T10:02:24;99449.83;;;0.99;76.41
84271;BME280;74614;50.032;19.566;2024-01-27T10:04:24;99442.94;;;0.95;76.64
84271;BME280;74614;50.032;19.566;2024-01-27T10:06:24;99449.33;;;1.00;76.99
84271;BME280;74614;50.032;19.566;2024-01-27T10:08:26;99452.25;;;1.04;77.13
84271;BME280;74614;50.032;19.566;2024-01-27T10:10:23;99450.53;;;1.02;76.71
84271;BME280;74614;50.032;19.566;2024-01-27T10:12:23;99452.53;;;0.90;77.16
84271;BME280;74614;50.032;19.566;2024-01-27T10:14:25;99459.90;;;0.82;77.79
84271;BME280;74614;50.032;19.566;2024-01-27T10:16:23;99452.90;;;0.73;78.26
84271;BME280;74614;50.032;19.566;2024-01-27T10:18:23;99455.47;;;0.78;78.33
84271;BME280;74614;50.032;19.566;2024-01-27T10:20:23;99451.82;;;0.62;79.03
84271;BME280;74614;50.032;19.566;2024-01-27T10:22:23;99444.87;;;0.72;78.59
84271;BME280;74614;50.032;19.566;2024-01-27T10:24:26;99451.77;;;0.57;79.43
84271;BME280;74614;50.032;19.566;2024-01-27T10:26:25;99446.54;;;0.63;79.35
84271;BME280;74614;50.032;19.566;2024-01-27T10:28:23;99446.67;;;0.57;79.74
84271;BME280;74614;50.032;19.566;2024-01-27T10:30:22;99446.61;;;0.62;79.63
84271;BME280;74614;50.032;19.566;2024-01-27T10:32:26;99445.62;;;0.56;79.60
84271;BME280;74614;50.032;19.566;2024-01-27T10:34:23;99447.36;;;0.60;80.03
84271;BME280;74614;50.032;19.566;2024-01-27T10:36:24;99453.97;;;0.62;79.77